Time,TemperatureF,DewpointF,PressureIn,WindDirection,WindDirectionDegrees,WindSpeedMPH,WindSpeedGustMPH,Humidity,HourlyPrecipIn,Conditions,Clouds,dailyrainin,SolarRadiationWatts/m^2,SoftwareType,DateUTC
2013-02-18 00:02:00,27.0,14.0,-100.00,NNW,347,2.0,2.0,58,0.00,,,0.00,0.000000,,2013-02-18 05:02:00,
2013-02-18 00:32:00,27.0,14.0,-100.00,NNW,347,2.0,2.0,58,0.00,,,0.00,0.000000,,2013-02-18 05:32:00,
2013-02-18 00:42:00,27.0,14.0,-100.00,NNW,347,2.0,2.0,58,0.00,,,0.00,0.000000,,2013-02-18 05:42:00,
2013-02-18 00:52:00,27.0,14.0,-100.00,NNW,347,2.0,2.0,58,0.00,,,0.00,0.000000,,2013-02-18 05:52:00,
2013-02-18 02:22:00,25.0,16.0,-100.00,North,5,2.0,2.0,67,-99.99,,,0.00,0.000000,,2013-02-18 07:22:00,
2013-02-18 02:32:00,25.0,16.0,-100.00,North,5,2.0,2.0,67,-99.99,,,0.00,0.000000,,2013-02-18 07:32:00,
2013-02-18 02:42:00,25.0,16.0,-100.00,North,5,2.0,2.0,67,-99.99,,,0.00,0.000000,,2013-02-18 07:42:00,
2013-02-18 02:52:00,25.0,16.0,-100.00,North,5,2.0,2.0,67,-99.99,,,0.00,0.000000,,2013-02-18 07:52:00,
2013-02-18 03:01:00,25.0,16.0,-100.00,North,5,2.0,2.0,67,-99.99,,,0.00,0.000000,,2013-02-18 08:01:00,
2013-02-18 03:02:00,24.0,14.0,-100.00,ENE,59,0.0,2.0,66,0.00,,,0.00,0.000000,,2013-02-18 08:02:00,
2013-02-18 03:33:00,24.0,14.0,-100.00,ENE,59,0.0,2.0,66,0.00,,,0.00,0.000000,,2013-02-18 08:33:00,
2013-02-18 03:42:00,24.0,14.0,-100.00,ENE,59,0.0,2.0,66,0.00,,,0.00,0.000000,,2013-02-18 08:42:00,
2013-02-18 03:52:00,24.0,14.0,-100.00,ENE,59,0.0,2.0,66,0.00,,,0.00,0.000000,,2013-02-18 08:52:00,
2013-02-18 04:32:00,23.0,16.0,-100.00,North,356,2.0,2.0,74,0.00,,,0.00,0.000000,,2013-02-18 09:32:00,
2013-02-18 04:42:00,23.0,16.0,-100.00,North,356,2.0,2.0,74,0.00,,,0.00,0.000000,,2013-02-18 09:42:00,
2013-02-18 04:52:00,23.0,16.0,-100.00,North,356,2.0,2.0,74,0.00,,,0.00,0.000000,,2013-02-18 09:52:00,
2013-02-18 05:01:00,23.0,16.0,-100.00,North,356,2.0,2.0,74,0.00,,,0.00,0.000000,,2013-02-18 10:01:00,
2013-02-18 05:02:00,23.0,15.0,-100.00,North,6,2.0,3.0,71,0.00,,,0.00,0.000000,,2013-02-18 10:02:00,
2013-02-18 05:32:00,23.0,15.0,-100.00,North,6,2.0,3.0,71,0.00,,,0.00,0.000000,,2013-02-18 10:32:00,
2013-02-18 05:42:00,23.0,15.0,-100.00,North,6,2.0,3.0,71,0.00,,,0.00,0.000000,,2013-02-18 10:42:00,
2013-02-18 05:53:00,23.0,15.0,-100.00,North,6,2.0,3.0,71,0.00,,,0.00,0.000000,,2013-02-18 10:53:00,
2013-02-18 06:02:00,24.0,15.0,-100.00,NE,51,1.0,3.0,69,0.00,,,0.00,0.000000,,2013-02-18 11:02:00,
2013-02-18 06:22:00,24.0,15.0,-100.00,NE,51,1.0,3.0,69,0.00,,,0.00,0.000000,,2013-02-18 11:22:00,
2013-02-18 06:33:00,24.0,15.0,-100.00,NE,51,1.0,3.0,69,0.00,,,0.00,0.000000,,2013-02-18 11:33:00,
2013-02-18 06:43:00,24.0,15.0,-100.00,NE,51,1.0,3.0,69,0.00,,,0.00,0.000000,,2013-02-18 11:43:00,
2013-02-18 06:53:00,24.0,15.0,-100.00,NE,51,1.0,3.0,69,0.00,,,0.00,0.000000,,2013-02-18 11:53:00,
2013-02-18 07:02:00,24.0,16.0,-100.00,NNE,15,2.0,3.0,70,0.00,,,0.00,0.000000,,2013-02-18 12:02:00,
2013-02-18 07:32:00,24.0,16.0,-100.00,NNE,15,2.0,3.0,70,0.00,,,0.00,0.000000,,2013-02-18 12:32:00,
2013-02-18 07:42:00,24.0,16.0,-100.00,NNE,15,2.0,3.0,70,0.00,,,0.00,0.000000,,2013-02-18 12:42:00,
2013-02-18 07:54:00,24.0,16.0,-100.00,NNE,15,2.0,3.0,70,0.00,,,0.00,0.000000,,2013-02-18 12:54:00,
2013-02-18 08:02:00,23.0,16.0,-100.00,North,10,1.0,2.0,73,0.00,,,0.00,9.000000,,2013-02-18 13:02:00,
2013-02-18 08:23:00,23.0,16.0,-100.00,North,10,1.0,2.0,73,0.00,,,0.00,9.000000,,2013-02-18 13:23:00,
2013-02-18 08:33:00,23.0,16.0,-100.00,North,10,1.0,2.0,73,0.00,,,0.00,9.000000,,2013-02-18 13:33:00,
2013-02-18 08:42:00,23.0,16.0,-100.00,North,10,1.0,2.0,73,0.00,,,0.00,9.000000,,2013-02-18 13:42:00,
2013-02-18 08:53:00,23.0,16.0,-100.00,North,10,1.0,2.0,73,0.00,,,0.00,9.000000,,2013-02-18 13:53:00,
2013-02-18 09:02:00,30.0,16.0,-100.00,NE,43,1.0,2.0,56,0.00,,,0.00,65.000000,,2013-02-18 14:02:00,
2013-02-18 09:34:00,30.0,16.0,-100.00,NE,43,1.0,2.0,56,0.00,,,0.00,65.000000,,2013-02-18 14:34:00,
2013-02-18 09:42:00,30.0,16.0,-100.00,NE,43,1.0,2.0,56,0.00,,,0.00,65.000000,,2013-02-18 14:42:00,
2013-02-18 09:54:00,30.0,16.0,-100.00,NE,43,1.0,2.0,56,0.00,,,0.00,65.000000,,2013-02-18 14:54:00,
2013-02-18 10:02:00,37.0,21.0,-100.00,NNW,343,2.0,3.0,51,0.00,,,0.00,83.000000,,2013-02-18 15:02:00,
2013-02-18 10:32:00,37.0,21.0,-100.00,NNW,343,2.0,3.0,51,0.00,,,0.00,83.000000,,2013-02-18 15:32:00,
2013-02-18 10:42:00,37.0,21.0,-100.00,NNW,343,2.0,3.0,51,0.00,,,0.00,83.000000,,2013-02-18 15:42:00,
2013-02-18 10:53:00,37.0,21.0,-100.00,NNW,343,2.0,3.0,51,0.00,,,0.00,83.000000,,2013-02-18 15:53:00,
2013-02-18 11:02:00,48.0,19.0,-100.00,NW,318,3.0,5.0,31,0.00,,,0.00,403.000000,,2013-02-18 16:02:00,
2013-02-18 11:33:00,48.0,19.0,-100.00,NW,318,3.0,5.0,31,0.00,,,0.00,403.000000,,2013-02-18 16:33:00,
2013-02-18 11:43:00,48.0,19.0,-100.00,NW,318,3.0,5.0,31,0.00,,,0.00,403.000000,,2013-02-18 16:43:00,
2013-02-18 11:53:00,48.0,19.0,-100.00,NW,318,3.0,5.0,31,0.00,,,0.00,403.000000,,2013-02-18 16:53:00,
2013-02-18 12:02:00,54.0,22.0,-100.00,South,180,3.0,5.0,28,0.00,,,0.00,664.000000,,2013-02-18 17:02:00,
2013-02-18 12:33:00,54.0,22.0,-100.00,South,180,3.0,5.0,28,0.00,,,0.00,664.000000,,2013-02-18 17:33:00,
2013-02-18 13:02:00,58.0,23.0,-100.00,SSW,206,3.0,7.0,26,0.00,,,0.00,760.000000,,2013-02-18 18:02:00,
2013-02-18 13:33:00,58.0,23.0,-100.00,SSW,206,3.0,7.0,26,0.00,,,0.00,760.000000,,2013-02-18 18:33:00,
2013-02-18 14:02:00,58.0,24.0,-100.00,South,170,3.0,6.0,27,0.00,,,0.00,707.000000,,2013-02-18 19:02:00,
2013-02-18 14:34:00,58.0,24.0,-100.00,South,170,3.0,6.0,27,0.00,,,0.00,707.000000,,2013-02-18 19:34:00,
2013-02-18 14:43:00,58.0,24.0,-100.00,South,170,3.0,6.0,27,0.00,,,0.00,707.000000,,2013-02-18 19:43:00,
2013-02-18 14:53:00,58.0,24.0,-100.00,South,170,3.0,6.0,27,0.00,,,0.00,707.000000,,2013-02-18 19:53:00,
2013-02-18 16:02:00,58.0,26.0,-100.00,South,172,4.0,7.0,29,-99.99,,,0.00,542.000000,,2013-02-18 21:02:00,
2013-02-18 16:33:00,58.0,26.0,-100.00,South,172,4.0,7.0,29,-99.99,,,0.00,542.000000,,2013-02-18 21:33:00,
2013-02-18 16:43:00,58.0,26.0,-100.00,South,172,4.0,7.0,29,-99.99,,,0.00,542.000000,,2013-02-18 21:43:00,
2013-02-18 16:53:00,58.0,26.0,-100.00,South,172,4.0,7.0,29,-99.99,,,0.00,542.000000,,2013-02-18 21:53:00,
2013-02-18 17:02:00,54.0,23.0,-100.00,South,171,5.0,7.0,30,0.00,,,0.00,176.000000,,2013-02-18 22:02:00,
2013-02-18 17:33:00,54.0,23.0,-100.00,South,171,5.0,7.0,30,0.00,,,0.00,176.000000,,2013-02-18 22:33:00,
2013-02-18 17:54:00,54.0,23.0,-100.00,South,171,5.0,7.0,30,0.00,,,0.00,176.000000,,2013-02-18 22:54:00,
2013-02-18 18:02:00,52.0,25.0,-100.00,South,172,4.0,7.0,34,0.00,,,0.00,21.000000,,2013-02-18 23:02:00,
2013-02-18 18:23:00,52.0,25.0,-100.00,South,172,4.0,7.0,34,0.00,,,0.00,21.000000,,2013-02-18 23:23:00,
2013-02-18 18:34:00,52.0,25.0,-100.00,South,172,4.0,7.0,34,0.00,,,0.00,21.000000,,2013-02-18 23:34:00,
2013-02-18 18:43:00,52.0,25.0,-100.00,South,172,4.0,7.0,34,0.00,,,0.00,21.000000,,2013-02-18 23:43:00,
2013-02-18 18:54:00,52.0,25.0,-100.00,South,172,4.0,7.0,34,0.00,,,0.00,21.000000,,2013-02-18 23:54:00,
2013-02-18 19:02:00,49.0,24.0,-100.00,SSE,168,4.0,6.0,37,0.00,,,0.00,4.000000,,2013-02-19 00:02:00,
2013-02-18 19:44:00,49.0,24.0,-100.00,SSE,168,4.0,6.0,37,0.00,,,0.00,4.000000,,2013-02-19 00:44:00,
2013-02-18 19:55:00,49.0,24.0,-100.00,SSE,168,4.0,6.0,37,0.00,,,0.00,4.000000,,2013-02-19 00:55:00,
2013-02-18 20:02:00,48.0,24.0,-100.00,South,172,4.0,6.0,39,0.00,,,0.00,0.000000,,2013-02-19 01:02:00,
2013-02-18 20:25:00,48.0,24.0,-100.00,South,172,4.0,6.0,39,0.00,,,0.00,0.000000,,2013-02-19 01:25:00,
2013-02-18 20:35:00,48.0,24.0,-100.00,South,172,4.0,6.0,39,0.00,,,0.00,0.000000,,2013-02-19 01:35:00,
2013-02-18 20:45:00,48.0,24.0,-100.00,South,172,4.0,6.0,39,0.00,,,0.00,0.000000,,2013-02-19 01:45:00,
2013-02-18 20:56:00,48.0,24.0,-100.00,South,172,4.0,6.0,39,0.00,,,0.00,0.000000,,2013-02-19 01:56:00,
2013-02-18 21:02:00,47.0,25.0,-100.00,SSE,168,3.0,5.0,41,0.00,,,0.00,0.000000,,2013-02-19 02:02:00,
2013-02-18 21:35:00,47.0,25.0,-100.00,SSE,168,3.0,5.0,41,0.00,,,0.00,0.000000,,2013-02-19 02:35:00,
2013-02-18 21:44:00,47.0,25.0,-100.00,SSE,168,3.0,5.0,41,0.00,,,0.00,0.000000,,2013-02-19 02:44:00,
2013-02-18 21:55:00,47.0,25.0,-100.00,SSE,168,3.0,5.0,41,0.00,,,0.00,0.000000,,2013-02-19 02:55:00,
2013-02-18 22:02:00,47.0,25.0,-100.00,SSE,167,3.0,5.0,42,0.00,,,0.00,0.000000,,2013-02-19 03:02:00,
2013-02-18 22:35:00,47.0,25.0,-100.00,SSE,167,3.0,5.0,42,0.00,,,0.00,0.000000,,2013-02-19 03:35:00,
2013-02-18 22:45:00,47.0,25.0,-100.00,SSE,167,3.0,5.0,42,0.00,,,0.00,0.000000,,2013-02-19 03:45:00,
2013-02-18 22:55:00,47.0,25.0,-100.00,SSE,167,3.0,5.0,42,0.00,,,0.00,0.000000,,2013-02-19 03:55:00,
2013-02-18 23:02:00,45.0,26.0,-100.00,SSE,163,3.0,4.0,47,0.00,,,0.00,0.000000,,2013-02-19 04:02:00,
2013-02-18 23:24:00,45.0,26.0,-100.00,SSE,163,3.0,4.0,47,0.00,,,0.00,0.000000,,2013-02-19 04:24:00,
2013-02-18 23:34:00,45.0,26.0,-100.00,SSE,163,3.0,4.0,47,0.00,,,0.00,0.000000,,2013-02-19 04:34:00,
2013-02-18 23:45:00,45.0,26.0,-100.00,SSE,163,3.0,4.0,47,0.00,,,0.00,0.000000,,2013-02-19 04:45:00,
2013-02-18 23:55:00,45.0,26.0,-100.00,SSE,163,3.0,4.0,47,0.00,,,0.00,0.000000,,2013-02-19 04:55:00,